Terminal Aerodrome Forecast
Issued by NWS Corpus Christi, TX

Home | Current Version | Previous Version | Text Only | Print | Product List | Glossary On
Versions: 1 2 3 4 5 6 7 8 9 10 11 12 13
000
FTUS44 KCRP 110500
TAFCRP
TAF
KCRP 110531Z 1106/1206 14006KT P6SM FEW025
     FM111500 14015G22KT P6SM FEW035
     FM120100 14008KT P6SM FEW025 SCT150=

USA.gov is the U.S. government's official web portal to all federal, state and local government web resources and services.